Time;durP1;ratioP1;P1;durP2;ratioP2;P2;SDS_P1;SDS_P2;PMS_P1;PMS_P2;Temp;Humidity;BMP_temperature;BMP_pressure;BME280_temperature;BME280_humidity;BME280_pressure;Samples;Min_cycle;Max_cycle;Signal;HPM_P1;HPM_P2
2022/09/02 00:01:23;;;;;;;915.55;830.22;;;20.90;73.70;;;;;;4984939;28;20565;-84
2022/09/02 00:03:52;;;;;;;918.33;833.05;;;20.80;73.60;;;;;;4987483;28;20232;-84
2022/09/02 00:06:19;;;;;;;919.50;834.40;;;20.80;73.80;;;;;;4982141;28;20201;-85
2022/09/02 00:08:46;;;;;;;924.65;839.25;;;20.80;73.60;;;;;;4988341;28;20193;-79
2022/09/02 00:11:15;;;;;;;919.10;833.85;;;20.80;73.70;;;;;;4989203;28;20207;-82
2022/09/02 00:13:45;;;;;;;928.25;842.47;;;20.80;73.80;;;;;;4988357;28;20324;-83
2022/09/02 00:16:12;;;;;;;904.67;819.80;;;20.80;73.70;;;;;;4993989;28;20643;-82
2022/09/02 00:18:40;;;;;;;931.15;845.45;;;20.80;73.90;;;;;;4993174;28;20231;-83
2022/09/02 00:21:07;;;;;;;919.05;834.03;;;20.70;73.90;;;;;;4988010;28;20695;-81
2022/09/02 00:23:34;;;;;;;919.42;834.33;;;20.70;73.90;;;;;;4994457;28;20205;-81
2022/09/02 00:26:01;;;;;;;894.28;809.97;;;20.70;74.00;;;;;;4989671;28;20620;-82
2022/09/02 00:28:28;;;;;;;895.78;811.05;;;20.70;73.90;;;;;;4985434;28;20201;-83
2022/09/02 00:30:56;;;;;;;904.42;819.60;;;20.70;74.00;;;;;;4982947;28;20205;-83
2022/09/02 00:33:23;;;;;;;907.40;822.63;;;20.70;74.00;;;;;;4980450;28;20221;-83
2022/09/02 00:35:50;;;;;;;926.20;840.85;;;20.70;73.90;;;;;;4989118;28;20216;-84
2022/09/02 00:38:17;;;;;;;912.38;827.33;;;20.70;73.90;;;;;;4989378;28;20276;-83
2022/09/02 00:40:46;;;;;;;892.88;808.42;;;20.60;73.70;;;;;;4988667;28;20193;-84
2022/09/02 00:43:22;;;;;;;903.10;818.22;;;20.60;73.90;;;;;;4988061;28;20193;-82
2022/09/02 00:45:49;;;;;;;906.88;821.92;;;20.60;74.60;;;;;;4985383;28;20208;-81
2022/09/02 00:48:17;;;;;;;896.67;812.08;;;20.60;74.00;;;;;;4990628;28;20670;-81
2022/09/02 00:50:44;;;;;;;913.30;828.25;;;20.60;73.90;;;;;;4987120;28;20206;-82
2022/09/02 00:53:14;;;;;;;904.72;819.92;;;20.60;73.90;;;;;;4987618;28;20624;-82
2022/09/02 00:55:45;;;;;;;909.60;824.80;;;20.60;74.10;;;;;;4990425;28;20201;-82
2022/09/02 00:58:16;;;;;;;896.40;812.03;;;20.50;73.80;;;;;;4990841;28;20211;-81
2022/09/02 01:00:45;;;;;;;894.08;809.65;;;20.50;73.70;;;;;;4988829;28;20754;-82
2022/09/02 01:03:15;;;;;;;905.65;820.95;;;20.50;74.00;;;;;;4989130;28;20284;-84
2022/09/02 01:05:47;;;;;;;910.65;825.65;;;20.50;73.90;;;;;;4990295;28;20205;-84
2022/09/02 01:08:18;;;;;;;906.67;822.03;;;20.50;74.10;;;;;;4986901;28;20668;-82
2022/09/02 01:10:46;;;;;;;899.45;815.15;;;20.50;73.90;;;;;;4991617;28;20216;-83
2022/09/02 01:13:15;;;;;;;904.55;819.75;;;20.50;73.90;;;;;;4993863;28;20201;-82
2022/09/02 01:15:52;;;;;;;892.53;807.90;;;20.50;73.80;;;;;;4990316;28;20205;-82
2022/09/02 01:18:23;;;;;;;907.90;822.92;;;20.40;73.80;;;;;;4994699;28;20623;-82
2022/09/02 01:20:53;;;;;;;891.72;807.38;;;20.40;73.70;;;;;;4987433;28;20653;-85
2022/09/02 01:23:21;;;;;;;888.67;804.25;;;20.40;73.90;;;;;;4990183;28;20573;-84
2022/09/02 01:25:48;;;;;;;903.83;818.83;;;20.40;73.90;;;;;;4988523;28;20201;-84
2022/09/02 01:28:18;;;;;;;907.47;822.30;;;20.40;73.80;;;;;;4989859;28;20672;-85
2022/09/02 01:30:50;;;;;;;900.13;815.28;;;20.40;73.80;;;;;;4989529;28;20252;-84
2022/09/02 01:33:19;;;;;;;897.47;813.00;;;20.40;73.90;;;;;;4988020;28;20671;-84
2022/09/02 01:35:46;;;;;;;904.67;819.88;;;20.30;73.80;;;;;;4991387;28;20205;-84
2022/09/02 01:38:14;;;;;;;890.53;805.97;;;20.30;73.70;;;;;;5003590;28;20200;-84
2022/09/02 01:40:42;;;;;;;900.60;815.85;;;20.30;74.00;;;;;;4992846;28;20312;-84
2022/09/02 01:43:12;;;;;;;901.03;816.30;;;20.30;74.00;;;;;;4991111;28;20197;-84
2022/09/02 01:45:41;;;;;;;886.17;801.95;;;20.30;74.00;;;;;;4987160;28;20576;-83
2022/09/02 01:48:09;;;;;;;897.63;812.92;;;20.30;74.00;;;;;;4989747;28;20207;-84
2022/09/02 01:50:38;;;;;;;890.17;805.60;;;20.30;74.10;;;;;;4988954;28;20197;-83
2022/09/02 01:53:05;;;;;;;894.92;810.50;;;20.30;74.20;;;;;;4988485;28;20200;-83
2022/09/02 01:55:33;;;;;;;884.67;800.38;;;20.30;74.20;;;;;;4989144;28;20561;-83
2022/09/02 01:58:01;;;;;;;897.67;812.95;;;20.30;74.20;;;;;;4986614;28;20196;-82
2022/09/02 02:00:28;;;;;;;895.97;811.60;;;20.30;74.30;;;;;;4985558;28;20245;-83
2022/09/02 02:02:56;;;;;;;899.20;814.75;;;20.20;74.20;;;;;;4998109;28;20275;-84
2022/09/02 02:05:23;;;;;;;888.97;804.70;;;20.20;74.20;;;;;;4990026;28;20209;-84
2022/09/02 02:07:50;;;;;;;908.08;823.28;;;20.20;74.20;;;;;;4990451;28;20197;-83
2022/09/02 02:10:19;;;;;;;883.55;799.38;;;20.20;74.20;;;;;;4990735;28;20204;-84
2022/09/02 02:12:46;;;;;;;893.05;808.63;;;20.20;74.30;;;;;;4989532;28;20205;-83
2022/09/02 02:15:17;;;;;;;876.53;792.47;;;20.20;74.30;;;;;;4992247;28;20197;-82
2022/09/02 02:17:44;;;;;;;870.17;786.22;;;20.20;74.50;;;;;;5000880;28;20687;-84
2022/09/02 02:20:13;;;;;;;881.20;796.90;;;20.20;74.60;;;;;;4989852;28;20217;-85
2022/09/02 02:22:41;;;;;;;867.55;783.58;;;20.10;74.20;;;;;;4995246;28;20201;-86
2022/09/02 02:25:09;;;;;;;887.08;802.78;;;20.10;74.40;;;;;;4992909;28;20216;-83
2022/09/02 02:27:36;;;;;;;862.92;779.30;;;20.10;74.40;;;;;;4993752;28;20197;-85
2022/09/02 02:30:04;;;;;;;896.22;811.45;;;20.10;74.50;;;;;;4988582;28;20201;-85
2022/09/02 02:32:32;;;;;;;884.05;799.67;;;20.10;74.40;;;;;;4991581;28;20217;-84
2022/09/02 02:34:59;;;;;;;882.85;798.75;;;20.10;74.50;;;;;;4990865;28;20213;-85
2022/09/02 02:37:26;;;;;;;883.03;798.72;;;20.10;74.50;;;;;;4993789;28;20579;-85
2022/09/02 02:39:52;;;;;;;871.40;787.40;;;20.10;74.30;;;;;;4990897;28;20220;-85
2022/09/02 02:42:19;;;;;;;882.15;797.80;;;20.10;74.50;;;;;;4987480;28;20206;-84
2022/09/02 02:44:46;;;;;;;892.78;808.08;;;20.10;74.60;;;;;;4992645;28;20201;-84
2022/09/02 02:47:13;;;;;;;881.08;796.70;;;20.00;74.60;;;;;;4995112;28;20573;-83
2022/09/02 02:49:43;;;;;;;883.72;799.58;;;20.00;74.70;;;;;;4994233;28;20208;-83
2022/09/02 02:52:12;;;;;;;880.92;796.65;;;20.00;74.60;;;;;;4988952;28;20223;-83
2022/09/02 02:54:39;;;;;;;875.38;791.42;;;20.00;74.80;;;;;;4991641;28;20208;-82
2022/09/02 02:57:07;;;;;;;875.10;791.17;;;20.00;74.80;;;;;;4986850;28;20212;-84
2022/09/02 02:59:35;;;;;;;884.88;800.50;;;20.00;74.70;;;;;;4985484;28;20217;-83
2022/09/02 03:02:03;;;;;;;887.95;803.47;;;20.00;74.80;;;;;;4986588;28;20252;-84
2022/09/02 03:04:29;;;;;;;866.75;782.95;;;20.00;74.80;;;;;;4991287;28;20726;-83
2022/09/02 03:06:58;;;;;;;881.10;796.92;;;20.00;74.80;;;;;;4987694;28;20271;-84
2022/09/02 03:09:24;;;;;;;880.90;796.70;;;19.90;74.80;;;;;;4988766;28;20210;-84
2022/09/02 03:11:51;;;;;;;881.22;796.83;;;19.90;74.80;;;;;;4990416;28;20201;-83
2022/09/02 03:14:18;;;;;;;871.05;786.95;;;19.90;74.90;;;;;;4990112;28;20204;-83
2022/09/02 03:16:45;;;;;;;876.92;792.67;;;19.90;74.80;;;;;;4988424;28;20600;-82
2022/09/02 03:19:13;;;;;;;867.65;783.70;;;19.90;74.80;;;;;;4991852;28;20217;-85
2022/09/02 03:21:40;;;;;;;893.33;808.72;;;19.90;74.80;;;;;;4988771;28;20204;-84
2022/09/02 03:24:10;;;;;;;868.03;784.20;;;19.90;74.90;;;;;;4989820;28;20201;-84
2022/09/02 03:26:37;;;;;;;866.20;782.35;;;19.90;75.00;;;;;;4988921;28;20197;-83
2022/09/02 03:29:04;;;;;;;868.65;784.78;;;19.80;74.90;;;;;;4986588;28;20208;-84
2022/09/02 03:31:31;;;;;;;881.47;797.25;;;19.80;74.90;;;;;;4987052;28;20292;-83
2022/09/02 03:33:58;;;;;;;858.90;775.15;;;19.80;75.00;;;;;;4983158;28;20193;-83
2022/09/02 03:36:26;;;;;;;868.55;784.60;;;19.80;74.90;;;;;;4986469;28;20193;-83
2022/09/02 03:38:54;;;;;;;858.35;774.78;;;19.80;75.00;;;;;;4989901;28;20288;-82
2022/09/02 03:41:23;;;;;;;878.03;793.85;;;19.80;75.10;;;;;;4987069;28;20217;-82
2022/09/02 03:43:50;;;;;;;877.55;793.50;;;19.80;75.00;;;;;;4986029;28;20193;-83
2022/09/02 03:46:17;;;;;;;846.08;762.90;;;19.80;75.10;;;;;;4985662;28;20296;-83
2022/09/02 03:48:44;;;;;;;866.35;782.80;;;19.80;75.10;;;;;;4995749;28;20209;-83
2022/09/02 03:51:11;;;;;;;868.80;784.88;;;19.80;75.20;;;;;;4988406;28;20211;-82
2022/09/02 03:53:38;;;;;;;870.33;786.35;;;19.80;75.20;;;;;;4990390;28;20698;-82
2022/09/02 03:56:07;;;;;;;860.50;777.03;;;19.80;75.30;;;;;;4973021;28;20202;-82
2022/09/02 03:58:36;;;;;;;860.53;776.92;;;19.70;75.10;;;;;;4986194;28;20683;-82
2022/09/02 04:01:03;;;;;;;868.50;784.53;;;19.70;75.20;;;;;;4984271;28;20224;-82
2022/09/02 04:03:30;;;;;;;860.15;776.55;;;19.70;75.20;;;;;;4981973;28;20236;-83
2022/09/02 04:05:57;;;;;;;853.42;770.08;;;19.70;75.30;;;;;;4979724;28;20202;-83
2022/09/02 04:08:25;;;;;;;860.47;776.78;;;19.70;75.20;;;;;;4988114;28;20201;-83
2022/09/02 04:10:52;;;;;;;860.38;776.90;;;19.70;75.20;;;;;;4983220;28;20312;-84
2022/09/02 04:13:19;;;;;;;850.47;767.03;;;19.70;75.20;;;;;;4989136;28;20288;-84
2022/09/02 04:15:48;;;;;;;870.88;786.92;;;19.70;75.30;;;;;;4989048;28;20201;-84
2022/09/02 04:18:16;;;;;;;852.50;768.97;;;19.60;75.30;;;;;;4989621;28;20308;-83
2022/09/02 04:20:43;;;;;;;859.97;776.28;;;19.60;75.30;;;;;;4988506;28;20217;-82
2022/09/02 04:23:10;;;;;;;856.45;772.60;;;19.60;75.40;;;;;;4990991;28;20668;-83
2022/09/02 04:25:40;;;;;;;844.38;761.08;;;19.60;75.40;;;;;;4985886;28;20296;-83
2022/09/02 04:28:07;;;;;;;854.33;770.83;;;19.60;75.40;;;;;;4986760;28;20205;-82
2022/09/02 04:30:34;;;;;;;864.90;781.38;;;19.60;75.40;;;;;;4991016;28;20679;-83
2022/09/02 04:33:02;;;;;;;867.50;783.65;;;19.60;75.30;;;;;;4993144;28;20651;-82
2022/09/02 04:35:29;;;;;;;847.90;764.65;;;19.60;75.30;;;;;;4988343;28;20243;-83
2022/09/02 04:37:55;;;;;;;862.63;779.10;;;19.60;75.40;;;;;;4991318;28;20205;-83
2022/09/02 04:40:22;;;;;;;855.70;772.35;;;19.60;75.50;;;;;;4989291;28;20217;-84
2022/09/02 04:42:51;;;;;;;854.33;770.95;;;19.60;75.40;;;;;;4991953;28;20207;-83
2022/09/02 04:45:17;;;;;;;863.30;779.72;;;19.60;75.40;;;;;;4985213;28;20220;-83
2022/09/02 04:47:44;;;;;;;855.22;771.75;;;19.60;75.40;;;;;;4997419;28;20209;-83
2022/09/02 04:50:12;;;;;;;851.83;768.38;;;19.50;75.30;;;;;;4998080;28;20197;-83
2022/09/02 04:52:39;;;;;;;852.72;769.20;;;19.60;75.50;;;;;;4989595;28;20197;-83
2022/09/02 04:55:06;;;;;;;844.55;761.40;;;19.50;75.30;;;;;;4993553;28;20197;-83
2022/09/02 04:57:33;;;;;;;861.97;778.38;;;19.50;75.40;;;;;;4991935;28;20213;-83
2022/09/02 05:00:02;;;;;;;863.30;779.65;;;19.50;75.50;;;;;;4991124;28;20222;-84
2022/09/02 05:02:29;;;;;;;848.30;765.13;;;19.50;75.50;;;;;;4989657;28;20208;-83
2022/09/02 05:04:56;;;;;;;843.13;760.20;;;19.50;75.60;;;;;;4987280;28;20225;-83
2022/09/02 05:07:24;;;;;;;862.45;779.05;;;19.50;75.70;;;;;;4993555;28;20201;-83
2022/09/02 05:09:56;;;;;;;840.92;758.00;;;19.50;75.70;;;;;;4993012;28;20671;-84
2022/09/02 05:12:24;;;;;;;854.13;770.63;;;19.50;75.80;;;;;;4991394;28;20196;-84
2022/09/02 05:14:51;;;;;;;854.58;771.17;;;19.50;75.80;;;;;;4990142;28;20194;-83
2022/09/02 05:17:17;;;;;;;859.00;775.40;;;19.50;75.80;;;;;;4988097;28;20675;-83
2022/09/02 05:19:44;;;;;;;856.50;773.10;;;19.50;75.80;;;;;;4991489;28;20207;-84
2022/09/02 05:22:11;;;;;;;847.70;764.08;;;19.50;75.80;;;;;;4991219;28;20208;-84
2022/09/02 05:24:41;;;;;;;857.13;773.55;;;19.50;75.90;;;;;;4992856;28;20208;-83
2022/09/02 05:27:07;;;;;;;848.35;765.17;;;19.50;75.90;;;;;;4985665;28;20216;-83
2022/09/02 05:29:35;;;;;;;860.10;776.42;;;19.50;76.00;;;;;;4991476;28;20209;-83
2022/09/02 05:32:03;;;;;;;854.17;770.90;;;19.50;76.50;;;;;;4993343;28;20197;-83
2022/09/02 05:34:29;;;;;;;867.08;783.28;;;19.50;76.00;;;;;;4991080;28;21264;-83
2022/09/02 05:36:56;;;;;;;862.20;778.80;;;19.50;75.90;;;;;;4983412;28;20205;-84
2022/09/02 05:39:23;;;;;;;856.03;772.70;;;19.50;76.00;;;;;;4986619;28;20198;-83
2022/09/02 05:41:51;;;;;;;847.00;763.88;;;19.50;76.00;;;;;;4990639;28;20224;-83
2022/09/02 05:44:18;;;;;;;849.20;765.80;;;19.50;76.10;;;;;;4988296;28;20208;-82
2022/09/02 05:46:45;;;;;;;845.22;762.25;;;19.40;75.90;;;;;;4988088;28;20229;-82
2022/09/02 05:49:16;;;;;;;857.67;774.28;;;19.40;76.00;;;;;;4991642;28;20560;-82
2022/09/02 05:51:45;;;;;;;836.78;753.95;;;19.40;76.00;;;;;;4987179;28;20201;-82
2022/09/02 05:54:14;;;;;;;839.65;756.58;;;19.40;76.00;;;;;;4985839;28;20197;-83
2022/09/02 05:56:43;;;;;;;849.30;766.13;;;19.40;76.00;;;;;;4992765;28;20208;-81
2022/09/02 05:59:11;;;;;;;846.33;763.17;;;19.40;76.00;;;;;;4990521;28;20275;-82
2022/09/02 06:01:38;;;;;;;863.30;779.60;;;19.50;76.00;;;;;;4989327;28;20216;-81
2022/09/02 06:04:06;;;;;;;845.42;762.42;;;19.50;76.00;;;;;;4991932;28;20259;-82
2022/09/02 06:06:34;;;;;;;842.58;759.58;;;19.50;76.00;;;;;;4986680;28;20193;-80
2022/09/02 06:09:03;;;;;;;847.40;764.22;;;19.60;75.80;;;;;;4991360;28;20193;-80
2022/09/02 06:11:29;;;;;;;863.55;780.05;;;19.60;75.40;;;;;;4988814;28;20197;-80
2022/09/02 06:13:56;;;;;;;861.50;777.97;;;19.60;75.30;;;;;;4990198;28;20272;-82
2022/09/02 06:16:25;;;;;;;855.90;772.33;;;19.60;75.30;;;;;;4989101;28;20201;-80
2022/09/02 06:18:52;;;;;;;860.47;777.10;;;19.60;75.60;;;;;;4990809;28;20571;-81
2022/09/02 06:21:20;;;;;;;843.83;760.92;;;19.60;75.60;;;;;;4984585;28;20605;-81
2022/09/02 06:23:48;;;;;;;846.00;762.85;;;19.60;75.20;;;;;;4997490;28;20290;-81
2022/09/02 06:26:16;;;;;;;834.45;751.63;;;19.60;75.50;;;;;;4990595;28;20197;-81
2022/09/02 06:28:43;;;;;;;859.80;776.13;;;19.60;75.60;;;;;;4985514;28;20197;-78
2022/09/02 06:31:13;;;;;;;857.28;773.88;;;19.60;75.70;;;;;;4992834;28;20215;-78
2022/09/02 06:33:43;;;;;;;860.80;777.10;;;19.60;75.60;;;;;;4992598;28;20206;-79
2022/09/02 06:36:13;;;;;;;847.05;763.75;;;19.50;75.80;;;;;;4983691;28;20256;-79
2022/09/02 06:38:43;;;;;;;843.95;761.00;;;19.60;75.60;;;;;;4982915;28;20200;-80
2022/09/02 06:41:11;;;;;;;827.00;744.50;;;19.60;75.60;;;;;;4987297;28;20667;-81
2022/09/02 06:43:38;;;;;;;852.75;769.28;;;19.60;75.70;;;;;;4988284;28;20205;-79
2022/09/02 06:46:06;;;;;;;853.83;770.55;;;19.60;75.80;;;;;;4991567;28;20196;-80
2022/09/02 06:48:33;;;;;;;852.80;769.55;;;19.60;75.50;;;;;;4985781;28;20292;-79
2022/09/02 06:51:01;;;;;;;844.58;761.78;;;19.60;75.60;;;;;;4989498;28;20219;-81
2022/09/02 06:53:28;;;;;;;845.25;762.25;;;19.60;76.30;;;;;;4985048;28;20229;-76
2022/09/02 06:55:55;;;;;;;835.28;752.38;;;19.60;76.40;;;;;;4988861;28;20193;-77
2022/09/02 06:58:21;;;;;;;840.92;757.85;;;19.60;75.90;;;;;;4984388;28;21028;-76
2022/09/02 07:00:48;;;;;;;847.03;764.05;;;19.60;75.90;;;;;;4992071;28;20596;-78
2022/09/02 07:06:03;;;;;;;827.25;744.88;;;19.70;76.30;;;;;;4982235;28;20670;-76
2022/09/02 07:08:30;;;;;;;860.97;777.33;;;19.80;76.30;;;;;;4990541;28;20189;-76
2022/09/02 07:10:57;;;;;;;880.10;795.60;;;20.10;75.90;;;;;;4991240;28;20213;-77
2022/09/02 07:13:24;;;;;;;898.92;814.15;;;20.50;75.20;;;;;;4988761;28;20198;-79
2022/09/02 07:15:51;;;;;;;895.83;811.10;;;20.80;74.30;;;;;;4982046;28;20193;-76
2022/09/02 07:18:18;;;;;;;903.67;819.05;;;21.00;73.90;;;;;;4990270;28;20216;-76
2022/09/02 07:20:46;;;;;;;917.80;832.72;;;21.00;73.70;;;;;;4988062;28;20224;-77
2022/09/02 07:23:16;;;;;;;915.00;829.88;;;20.90;73.50;;;;;;4986996;28;20299;-77
2022/09/02 07:25:43;;;;;;;912.50;827.70;;;20.90;73.80;;;;;;4988156;28;20301;-76
2022/09/02 07:28:11;;;;;;;895.85;811.53;;;20.80;73.80;;;;;;4988418;28;20312;-79
2022/09/02 07:30:41;;;;;;;903.78;818.60;;;20.80;74.00;;;;;;4986824;28;20296;-77
2022/09/02 07:33:09;;;;;;;910.50;825.72;;;20.70;74.20;;;;;;4983712;28;20224;-77
2022/09/02 07:35:37;;;;;;;910.78;826.05;;;20.70;74.20;;;;;;4988593;28;20201;-80
2022/09/02 07:38:04;;;;;;;906.13;821.53;;;20.60;74.30;;;;;;4986789;28;20204;-77
2022/09/02 07:40:32;;;;;;;895.75;811.45;;;20.60;74.40;;;;;;4986717;28;20255;-77
2022/09/02 07:42:59;;;;;;;898.83;814.50;;;20.50;74.50;;;;;;4989730;28;20201;-78
2022/09/02 07:45:26;;;;;;;898.10;813.55;;;20.50;74.70;;;;;;4984194;28;20216;-78
2022/09/02 07:47:53;;;;;;;888.05;803.95;;;20.50;74.80;;;;;;4988057;28;20219;-78
2022/09/02 07:50:20;;;;;;;864.47;781.15;;;20.50;75.00;;;;;;4983149;28;20205;-78
2022/09/02 07:52:48;;;;;;;881.13;796.80;;;20.50;75.10;;;;;;4987629;28;20197;-81
2022/09/02 07:55:15;;;;;;;890.58;806.28;;;20.50;75.20;;;;;;4984230;28;20197;-80
2022/09/02 07:57:43;;;;;;;892.35;808.13;;;20.50;75.20;;;;;;4989544;28;20209;-81
2022/09/02 08:00:12;;;;;;;880.25;796.25;;;20.50;75.40;;;;;;4986271;28;20197;-81
2022/09/02 08:02:39;;;;;;;881.95;798.00;;;20.50;75.30;;;;;;4987693;28;20221;-80
2022/09/02 08:05:06;;;;;;;889.50;805.22;;;20.50;75.40;;;;;;4986120;28;20201;-80
2022/09/02 08:07:33;;;;;;;891.88;807.47;;;20.50;75.40;;;;;;4994435;28;20283;-80
2022/09/02 08:10:00;;;;;;;896.67;812.10;;;20.50;75.50;;;;;;4997442;28;20215;-80
2022/09/02 08:12:27;;;;;;;858.83;775.78;;;20.50;75.50;;;;;;4995515;28;20197;-78
2022/09/02 08:14:57;;;;;;;887.42;803.33;;;20.50;75.60;;;;;;4994554;28;20201;-80
2022/09/02 08:17:24;;;;;;;898.75;814.35;;;20.50;75.60;;;;;;4986157;28;20193;-80
2022/09/02 08:19:51;;;;;;;892.33;808.10;;;20.50;75.60;;;;;;4994208;28;20193;-81
2022/09/02 08:22:17;;;;;;;891.28;807.10;;;20.50;75.70;;;;;;4996168;28;20217;-82
2022/09/02 08:24:44;;;;;;;879.03;795.47;;;20.50;75.70;;;;;;4994304;28;20199;-82
2022/09/02 08:27:11;;;;;;;880.10;796.38;;;20.50;75.50;;;;;;4993833;28;20198;-82
2022/09/02 08:29:38;;;;;;;897.00;813.00;;;20.60;75.60;;;;;;4995028;28;20211;-82
2022/09/02 08:32:06;;;;;;;892.40;808.33;;;20.60;75.40;;;;;;4999165;28;20193;-81
2022/09/02 08:34:33;;;;;;;895.17;811.17;;;20.60;75.40;;;;;;4996571;28;20204;-81
2022/09/02 08:37:00;;;;;;;912.53;827.55;;;20.70;75.50;;;;;;5001102;28;20201;-83
2022/09/02 08:39:27;;;;;;;907.85;823.15;;;20.70;75.50;;;;;;4995022;28;20201;-81
2022/09/02 08:42:02;;;;;;;881.65;797.67;;;20.70;75.40;;;;;;4997443;28;20718;-83
2022/09/02 08:44:29;;;;;;;893.25;808.97;;;20.70;75.50;;;;;;4996496;28;20193;-83
2022/09/02 08:47:01;;;;;;;897.83;813.63;;;20.70;75.50;;;;;;4996352;28;20207;-82
2022/09/02 08:49:33;;;;;;;880.47;796.58;;;20.70;75.50;;;;;;4994001;28;20196;-81
2022/09/02 08:52:03;;;;;;;913.50;828.90;;;20.70;75.40;;;;;;4998023;28;20287;-82
2022/09/02 08:54:36;;;;;;;891.65;807.40;;;20.70;75.50;;;;;;4995124;28;20196;-81
2022/09/02 08:57:03;;;;;;;908.28;823.78;;;20.70;75.50;;;;;;4992735;28;20652;-82
2022/09/02 08:59:31;;;;;;;906.78;822.13;;;20.70;75.50;;;;;;4989745;28;20188;-81
2022/09/02 09:02:05;;;;;;;899.35;815.22;;;20.70;75.60;;;;;;4998357;28;20227;-81
2022/09/02 09:04:53;;;;;;;900.63;816.47;;;20.70;75.60;;;;;;4998245;28;21191;-81
2022/09/02 09:07:26;;;;;;;900.10;815.75;;;20.70;75.60;;;;;;4989608;28;20206;-82
2022/09/02 09:10:04;;;;;;;890.20;806.00;;;20.70;75.60;;;;;;4997543;28;20715;-83
2022/09/02 09:12:57;;;;;;;915.75;830.85;;;20.70;75.70;;;;;;4996484;28;20201;-81
2022/09/02 09:15:34;;;;;;;900.83;816.67;;;20.80;75.90;;;;;;4989691;28;20196;-81
2022/09/02 09:18:03;;;;;;;903.65;819.08;;;20.70;75.80;;;;;;4986484;28;20651;-84
2022/09/02 09:20:34;;;;;;;893.92;809.60;;;20.80;76.00;;;;;;4986084;28;20684;-80
2022/09/02 09:23:08;;;;;;;905.13;820.75;;;20.80;76.00;;;;;;4993692;28;20209;-81
2022/09/02 09:25:36;;;;;;;889.25;805.08;;;20.80;76.00;;;;;;4990171;28;20212;-82
2022/09/02 09:28:03;;;;;;;900.97;816.45;;;20.80;76.00;;;;;;4992510;28;20197;-82
2022/09/02 09:30:30;;;;;;;915.92;831.25;;;20.80;76.00;;;;;;4988724;28;20194;-80
2022/09/02 09:32:59;;;;;;;920.20;835.42;;;20.90;76.00;;;;;;4993956;28;20200;-82
2022/09/02 09:35:27;;;;;;;896.78;812.65;;;20.90;76.10;;;;;;4991280;28;20193;-81
2022/09/02 09:37:56;;;;;;;924.72;839.85;;;20.90;75.90;;;;;;4997574;28;20579;-81
2022/09/02 09:40:31;;;;;;;907.92;823.80;;;21.00;76.00;;;;;;4985893;28;20197;-82
2022/09/02 09:43:12;;;;;;;923.97;839.05;;;21.00;76.00;;;;;;4993206;28;20702;-81
2022/09/02 09:45:40;;;;;;;924.67;839.92;;;21.10;75.90;;;;;;4985671;28;20254;-80
2022/09/02 09:48:26;;;;;;;917.33;832.67;;;21.10;75.60;;;;;;4987857;28;20201;-79
2022/09/02 09:51:12;;;;;;;919.78;834.65;;;21.20;75.30;;;;;;4992027;28;20202;-82
2022/09/02 09:53:40;;;;;;;918.78;832.60;;;21.30;75.30;;;;;;4989998;28;20197;-81
2022/09/02 09:56:22;;;;;;;956.58;870.40;;;21.40;75.30;;;;;;4991941;28;20205;-81
2022/09/02 09:58:50;;;;;;;918.83;833.97;;;21.40;75.20;;;;;;4991099;28;20568;-82
2022/09/02 10:01:19;;;;;;;944.83;859.25;;;21.50;75.10;;;;;;4993016;28;20703;-81
2022/09/02 10:03:51;;;;;;;958.55;871.90;;;21.50;75.00;;;;;;4991817;28;20724;-80
2022/09/02 10:06:21;;;;;;;951.25;865.38;;;21.50;74.90;;;;;;4990614;28;20666;-80
2022/09/02 10:08:55;;;;;;;955.60;869.55;;;21.50;75.00;;;;;;4990370;28;20239;-79
2022/09/02 10:11:25;;;;;;;946.45;860.63;;;21.60;74.90;;;;;;4985545;28;20281;-81
2022/09/02 10:13:57;;;;;;;957.13;871.05;;;21.60;74.90;;;;;;4993839;28;20197;-80
2022/09/02 10:16:41;;;;;;;953.58;867.60;;;21.70;74.90;;;;;;4989795;28;20296;-81
2022/09/02 10:19:17;;;;;;;965.70;879.03;;;21.70;74.80;;;;;;4989271;28;20200;-82
2022/09/02 10:22:14;;;;;;;963.88;877.45;;;21.80;74.90;;;;;;4984844;28;20213;-81
2022/09/02 10:25:01;;;;;;;967.55;881.25;;;21.90;74.70;;;;;;4986827;28;20205;-82
2022/09/02 10:27:37;;;;;;;977.55;890.85;;;21.90;74.40;;;;;;4986007;28;20220;-80
2022/09/02 10:30:08;;;;;;;974.53;887.83;;;22.00;74.50;;;;;;4990505;28;20203;-80
2022/09/02 10:32:56;;;;;;;977.08;890.08;;;22.00;74.20;;;;;;4990755;28;20200;-80
2022/09/02 10:35:30;;;;;;;974.72;888.25;;;22.00;74.30;;;;;;4990620;28;20687;-81
2022/09/02 10:38:11;;;;;;;957.38;871.28;;;22.00;74.40;;;;;;4984522;28;20648;-81
2022/09/02 10:40:45;;;;;;;960.88;874.90;;;22.10;74.20;;;;;;4987924;28;20196;-82
2022/09/02 10:43:27;;;;;;;968.40;882.30;;;22.10;74.10;;;;;;4984053;28;20212;-82
2022/09/02 10:45:56;;;;;;;962.97;876.80;;;22.10;74.30;;;;;;4988566;28;20240;-80
2022/09/02 10:48:35;;;;;;;980.25;893.55;;;22.10;74.00;;;;;;4993939;28;20203;-81
2022/09/02 10:51:06;;;;;;;973.63;886.75;;;22.10;74.30;;;;;;4991641;28;20205;-80
2022/09/02 10:53:52;;;;;;;978.60;891.88;;;22.10;74.30;;;;;;4988758;28;20197;-81
2022/09/02 10:56:25;;;;;;;966.15;879.78;;;22.10;74.50;;;;;;4990055;28;20197;-80
2022/09/02 10:58:59;;;;;;;968.75;882.33;;;22.10;74.40;;;;;;4989209;28;20205;-80
2022/09/02 11:01:31;;;;;;;976.78;890.35;;;22.10;74.20;;;;;;4992496;28;20236;-82
2022/09/02 11:04:05;;;;;;;984.85;897.90;;;22.20;74.20;;;;;;4988214;28;20260;-82
2022/09/02 11:06:37;;;;;;;982.53;895.60;;;22.20;74.00;;;;;;4981184;28;20201;-79
2022/09/02 11:09:09;;;;;;;975.55;888.97;;;22.20;74.30;;;;;;5003561;28;20223;-81
2022/09/02 11:11:42;;;;;;;975.03;888.45;;;22.20;74.10;;;;;;4986021;28;20193;-83
2022/09/02 11:14:17;;;;;;;989.33;902.38;;;22.20;73.90;;;;;;4987455;28;20612;-82
2022/09/02 11:16:47;;;;;;;985.05;898.03;;;22.20;74.10;;;;;;4988935;28;20210;-84
2022/09/02 11:19:20;;;;;;;989.67;902.70;;;22.20;74.10;;;;;;4990634;28;20220;-83
2022/09/02 11:21:53;;;;;;;969.80;883.42;;;22.30;74.20;;;;;;4986794;28;20216;-82
2022/09/02 11:24:31;;;;;;;983.15;896.30;;;22.30;74.20;;;;;;4990889;28;20746;-81
2022/09/02 11:27:07;;;;;;;964.88;878.75;;;22.30;74.10;;;;;;4990825;28;20208;-81
2022/09/02 11:29:40;;;;;;;970.20;883.95;;;22.30;74.00;;;;;;4990267;28;20207;-85
2022/09/02 11:32:16;;;;;;;975.97;889.38;;;22.40;74.20;;;;;;4988121;28;20204;-82
2022/09/02 11:34:46;;;;;;;986.35;899.60;;;22.40;74.20;;;;;;4988042;28;20204;-81
2022/09/02 11:37:26;;;;;;;976.92;890.30;;;22.40;73.70;;;;;;4986840;28;20201;-80
2022/09/02 11:39:59;;;;;;;972.17;885.63;;;22.40;73.90;;;;;;4986705;28;20197;-82
2022/09/02 11:42:40;;;;;;;979.20;892.53;;;22.40;73.20;;;;;;4988391;28;20556;-81
2022/09/02 11:45:27;;;;;;;965.60;879.35;;;22.30;73.50;;;;;;4982383;28;20736;-82
2022/09/02 11:48:10;;;;;;;970.25;883.65;;;22.30;74.10;;;;;;4989492;28;20671;-81
2022/09/02 11:50:58;;;;;;;968.78;882.38;;;22.30;74.00;;;;;;4977668;28;20235;-82
2022/09/02 11:53:28;;;;;;;966.35;880.15;;;22.30;73.90;;;;;;4982970;28;20201;-82
2022/09/02 11:55:58;;;;;;;970.83;884.42;;;22.30;74.00;;;;;;4989107;28;20201;-83
2022/09/02 11:58:37;;;;;;;988.30;901.38;;;22.30;72.30;;;;;;4987029;28;20193;-82
2022/09/02 12:01:18;;;;;;;992.50;905.80;;;22.30;72.40;;;;;;4987713;28;20197;-83
2022/09/02 12:03:49;;;;;;;983.15;896.38;;;22.30;72.50;;;;;;4983350;28;20232;-82
2022/09/02 12:06:18;;;;;;;970.45;884.17;;;22.30;71.40;;;;;;4987327;28;20201;-82
2022/09/02 12:09:10;;;;;;;975.20;888.75;;;22.40;72.40;;;;;;4979963;28;20289;-82
2022/09/02 12:11:48;;;;;;;973.50;886.92;;;22.40;71.60;;;;;;4988118;28;20193;-82
2022/09/02 12:15:04;;;;;;;988.65;901.88;;;22.40;70.60;;;;;;4988014;28;20555;-81
2022/09/02 12:18:08;;;;;;;972.67;886.35;;;22.40;70.10;;;;;;4987947;28;20205;-80
2022/09/02 12:21:13;;;;;;;987.92;901.03;;;22.40;69.90;;;;;;4984455;28;20203;-82
2022/09/02 12:24:08;;;;;;;971.28;885.05;;;22.40;71.30;;;;;;4990074;28;20565;-83
2022/09/02 12:27:22;;;;;;;988.33;901.35;;;22.50;69.80;;;;;;4987552;28;20252;-82